Time;durP1;ratioP1;P1;durP2;ratioP2;P2;SDS_P1;SDS_P2;PMS_P1;PMS_P2;Temp;Humidity;BMP_temperature;BMP_pressure;BME280_temperature;BME280_humidity;BME280_pressure;Samples;Min_cycle;Max_cycle;Signal;HPM_P1;HPM_P2
2021/10/14 00:00:18;;;;;;;;;;;;;;;;;;1017906;29;1247;-25
2021/10/14 00:00:48;;;;;;;;;;;;;;;;;;1010312;29;1270;-25
2021/10/14 00:01:18;;;;;;;;;;;;;;;;;;1013205;29;1601;-24
2021/10/14 00:01:49;;;;;;;;;;;;;;;;;;1018222;29;1252;-25
2021/10/14 00:02:20;;;;;;;;;;;;;;;;;;1017740;29;952;-25
2021/10/14 00:02:51;;;;;;;;;;;;;;;;;;1014008;29;1047;-25
2021/10/14 00:03:21;;;;;;;;;;;;;;;;;;1013993;29;1151;-25
2021/10/14 00:03:52;;;;;;;;;;;;;;;;;;1009515;29;1510;-25
2021/10/14 00:04:22;;;;;;;;;;;;;;;;;;1010299;29;1383;-24
2021/10/14 00:04:53;;;;;;;;;;;;;;;;;;1013975;29;1216;-25
2021/10/14 00:05:23;;;;;;;;;;;;;;;;;;1013763;29;1152;-25
2021/10/14 00:05:54;;;;;;;;;;;;;;;;;;1018146;29;937;-25
2021/10/14 00:06:25;;;;;;;;;;;;;;;;;;1017780;29;1220;-25
2021/10/14 00:06:55;;;;;;;;;;;;;;;;;;1013827;29;1239;-24
2021/10/14 00:07:25;;;;;;;;;;;;;;;;;;1017798;29;1352;-25
2021/10/14 00:07:56;;;;;;;;;;;;;;;;;;1013574;29;1985;-25
2021/10/14 00:08:27;;;;;;;;;;;;;;;;;;1006008;29;1109;-25
2021/10/14 00:08:58;;;;;;;;;;;;;;;;;;1005997;29;1729;-25
2021/10/14 00:09:28;;;;;;;;;;;;;;;;;;1002377;29;1129;-25
2021/10/14 00:09:59;;;;;;;;;;;;;;;;;;1006284;29;1160;-25
2021/10/14 00:10:30;;;;;;;;;;;;;;;;;;1013985;29;1011;-24
2021/10/14 00:11:01;;;;;;;;;;;;;;;;;;1013709;29;1265;-25
2021/10/14 00:11:31;;;;;;;;;;;;;;;;;;1009868;29;1526;-25
2021/10/14 00:12:01;;;;;;;;;;;;;;;;;;1009634;29;1552;-24
2021/10/14 00:12:32;;;;;;;;;;;;;;;;;;1006381;29;1129;-24
2021/10/14 00:13:03;;;;;;;;;;;;;;;;;;1021132;28;1289;-24
2021/10/14 00:13:34;;;;;;;;;;;;;;;;;;1017813;29;1144;-25
2021/10/14 00:14:04;;;;;;;;;;;;;;;;;;1013855;29;999;-25
2021/10/14 00:14:34;;;;;;;;;;;;;;;;;;1013977;29;1017;-25
2021/10/14 00:15:05;;;;;;;;;;;;;;;;;;1014110;29;947;-25
2021/10/14 00:15:36;;;;;;;;;;;;;;;;;;1005890;29;1432;-25
2021/10/14 00:16:07;;;;;;;;;;;;;;;;;;1009721;29;1198;-25
2021/10/14 00:16:38;;;;;;;;;;;;;;;;;;1013752;29;1022;-25
2021/10/14 00:17:09;;;;;;;;;;;;;;;;;;1009531;29;1358;-25
2021/10/14 00:17:39;;;;;;;;;;;;;;;;;;1009852;29;912;-27
2021/10/14 00:18:10;;;;;;;;;;;;;;;;;;1013175;29;1585;-25
2021/10/14 00:18:41;;;;;;;;;;;;;;;;;;1005949;29;998;-25
2021/10/14 00:19:12;;;;;;;;;;;;;;;;;;1014000;29;1246;-24
2021/10/14 00:19:42;;;;;;;;;;;;;;;;;;1013666;29;1060;-24
2021/10/14 00:20:13;;;;;;;;;;;;;;;;;;1010369;29;1011;-25
2021/10/14 00:20:44;;;;;;;;;;;;;;;;;;1021535;29;1459;-25
2021/10/14 00:21:14;;;;;;;;;;;;;;;;;;1021656;29;1023;-24
2021/10/14 00:21:45;;;;;;;;;;;;;;;;;;1014135;29;1237;-25
2021/10/14 00:22:15;;;;;;;;;;;;;;;;;;1013515;29;1395;-25
2021/10/14 00:22:46;;;;;;;;;;;;;;;;;;1009517;29;1378;-25
2021/10/14 00:23:17;;;;;;;;;;;;;;;;;;1006167;29;1302;-25
2021/10/14 00:23:47;;;;;;;;;;;;;;;;;;1002011;29;2487;-24
2021/10/14 00:24:18;;;;;;;;;;;;;;;;;;1013546;29;1074;-24
2021/10/14 00:24:49;;;;;;;;;;;;;;;;;;1013438;29;1224;-25
2021/10/14 00:25:22;;;;;;;;;;;;;;;;;;1013651;29;1261;-24
2021/10/14 00:25:52;;;;;;;;;;;;;;;;;;1006292;29;1271;-25
2021/10/14 00:26:22;;;;;;;;;;;;;;;;;;1006214;29;1807;-25
2021/10/14 00:26:53;;;;;;;;;;;;;;;;;;1017690;29;1129;-25
2021/10/14 00:27:24;;;;;;;;;;;;;;;;;;1013455;29;1510;-25
2021/10/14 00:27:55;;;;;;;;;;;;;;;;;;1005501;29;1914;-25
2021/10/14 00:28:25;;;;;;;;;;;;;;;;;;1002101;29;1006;-25
2021/10/14 00:28:57;;;;;;;;;;;;;;;;;;998329;29;1552;-25
2021/10/14 00:29:28;;;;;;;;;;;;;;;;;;1002457;29;1728;-25
2021/10/14 00:29:59;;;;;;;;;;;;;;;;;;1002604;29;1435;-24
2021/10/14 00:30:29;;;;;;;;;;;;;;;;;;1008526;29;1049;-24
2021/10/14 00:31:00;;;;;;;;;;;;;;;;;;1002317;29;1107;-25
2021/10/14 00:31:30;;;;;;;;;;;;;;;;;;998449;29;1354;-25
2021/10/14 00:32:00;;;;;;;;;;;;;;;;;;1009815;29;1206;-24
2021/10/14 00:32:31;;;;;;;;;;;;;;;;;;1010289;29;945;-24
2021/10/14 00:33:02;;;;;;;;;;;;;;;;;;1020613;29;1357;-24
2021/10/14 00:33:33;;;;;;;;;;;;;;;;;;1006050;29;1153;-24
2021/10/14 00:34:03;;;;;;;;;;;;;;;;;;1005780;29;1400;-25
2021/10/14 00:34:34;;;;;;;;;;;;;;;;;;1006058;29;1236;-24
2021/10/14 00:35:04;;;;;;;;;;;;;;;;;;1013802;29;1078;-25
2021/10/14 00:35:35;;;;;;;;;;;;;;;;;;1009778;29;1336;-25
2021/10/14 00:36:05;;;;;;;;;;;;;;;;;;1017634;29;1242;-25
2021/10/14 00:36:36;;;;;;;;;;;;;;;;;;1018045;29;1114;-25
2021/10/14 00:37:06;;;;;;;;;;;;;;;;;;1017520;29;1094;-24
2021/10/14 00:37:37;;;;;;;;;;;;;;;;;;1013928;29;1015;-24
2021/10/14 00:38:08;;;;;;;;;;;;;;;;;;1005569;29;1383;-24
2021/10/14 00:38:38;;;;;;;;;;;;;;;;;;1003829;29;3566;-24
2021/10/14 00:39:09;;;;;;;;;;;;;;;;;;1010001;29;1246;-25
2021/10/14 00:39:39;;;;;;;;;;;;;;;;;;1014226;29;1492;-24
2021/10/14 00:40:09;;;;;;;;;;;;;;;;;;1014724;29;1564;-25
2021/10/14 00:40:40;;;;;;;;;;;;;;;;;;1014556;29;1366;-25
2021/10/14 00:41:11;;;;;;;;;;;;;;;;;;1010502;29;1387;-24
2021/10/14 00:41:41;;;;;;;;;;;;;;;;;;1010684;29;1064;-24
2021/10/14 00:42:12;;;;;;;;;;;;;;;;;;1010154;29;1371;-25
2021/10/14 00:42:44;;;;;;;;;;;;;;;;;;1002854;29;1274;-24
2021/10/14 00:43:14;;;;;;;;;;;;;;;;;;1006674;29;1206;-25
2021/10/14 00:43:45;;;;;;;;;;;;;;;;;;1003319;29;1108;-25
2021/10/14 00:44:16;;;;;;;;;;;;;;;;;;1006570;29;1197;-24
2021/10/14 00:44:47;;;;;;;;;;;;;;;;;;1008393;29;1749;-25
2021/10/14 00:45:19;;;;;;;;;;;;;;;;;;1010627;29;1303;-24
2021/10/14 00:45:49;;;;;;;;;;;;;;;;;;1011249;29;979;-24
2021/10/14 00:46:20;;;;;;;;;;;;;;;;;;1017936;29;1671;-25
2021/10/14 00:46:55;;;;;;;;;;;;;;;;;;1010291;29;1269;-25
2021/10/14 00:47:26;;;;;;;;;;;;;;;;;;1011269;29;1143;-25
2021/10/14 00:47:57;;;;;;;;;;;;;;;;;;1009860;29;1915;-25
2021/10/14 00:48:27;;;;;;;;;;;;;;;;;;1010771;29;1181;-25
2021/10/14 00:48:58;;;;;;;;;;;;;;;;;;1010083;29;1657;-25
2021/10/14 00:49:29;;;;;;;;;;;;;;;;;;1018341;29;1087;-25
2021/10/14 00:49:59;;;;;;;;;;;;;;;;;;1013874;29;1106;-25
2021/10/14 00:50:30;;;;;;;;;;;;;;;;;;1022110;29;1394;-25
2021/10/14 00:51:01;;;;;;;;;;;;;;;;;;1018421;29;1206;-25
2021/10/14 00:51:32;;;;;;;;;;;;;;;;;;1022714;29;906;-24
2021/10/14 00:52:02;;;;;;;;;;;;;;;;;;1014058;29;1129;-25
2021/10/14 00:52:33;;;;;;;;;;;;;;;;;;1014805;29;1215;-25
2021/10/14 00:53:05;;;;;;;;;;;;;;;;;;1014168;29;1395;-25
2021/10/14 00:53:37;;;;;;;;;;;;;;;;;;1014914;29;1046;-25
2021/10/14 00:54:08;;;;;;;;;;;;;;;;;;1018499;29;1138;-25
2021/10/14 00:54:39;;;;;;;;;;;;;;;;;;1017702;29;1658;-25
2021/10/14 00:55:12;;;;;;;;;;;;;;;;;;1018499;29;1203;-25
2021/10/14 00:55:43;;;;;;;;;;;;;;;;;;1017796;29;1318;-25
2021/10/14 00:56:16;;;;;;;;;;;;;;;;;;1018122;29;1166;-24
2021/10/14 00:56:46;;;;;;;;;;;;;;;;;;1002858;29;1056;-25
2021/10/14 00:57:17;;;;;;;;;;;;;;;;;;1002479;29;1793;-25
2021/10/14 00:57:48;;;;;;;;;;;;;;;;;;1003132;29;1128;-25
2021/10/14 00:58:18;;;;;;;;;;;;;;;;;;1006699;29;1602;-25
2021/10/14 00:58:49;;;;;;;;;;;;;;;;;;1019030;29;1223;-25
2021/10/14 00:59:20;;;;;;;;;;;;;;;;;;1018275;29;1147;-25
2021/10/14 00:59:51;;;;;;;;;;;;;;;;;;1018361;29;968;-25
2021/10/14 01:00:22;;;;;;;;;;;;;;;;;;1018581;29;1083;-25
2021/10/14 01:00:52;;;;;;;;;;;;;;;;;;1013825;29;1451;-25
2021/10/14 01:01:23;;;;;;;;;;;;;;;;;;1010550;29;997;-25
2021/10/14 01:01:54;;;;;;;;;;;;;;;;;;1008180;29;1064;-25
2021/10/14 01:02:25;;;;;;;;;;;;;;;;;;1009925;29;1246;-25
2021/10/14 01:02:56;;;;;;;;;;;;;;;;;;1010420;29;1262;-24
2021/10/14 01:03:26;;;;;;;;;;;;;;;;;;1014556;29;1083;-25
2021/10/14 01:03:57;;;;;;;;;;;;;;;;;;1013543;29;1313;-25
2021/10/14 01:04:27;;;;;;;;;;;;;;;;;;1018589;29;1160;-25
2021/10/14 01:04:58;;;;;;;;;;;;;;;;;;1010286;29;1211;-27
2021/10/14 01:05:29;;;;;;;;;;;;;;;;;;1010662;29;1029;-25
2021/10/14 01:05:59;;;;;;;;;;;;;;;;;;1010542;29;1163;-25
2021/10/14 01:06:30;;;;;;;;;;;;;;;;;;1009639;29;1400;-25
2021/10/14 01:07:01;;;;;;;;;;;;;;;;;;1014018;29;1216;-25
2021/10/14 01:07:31;;;;;;;;;;;;;;;;;;1006792;29;1390;-25
2021/10/14 01:08:02;;;;;;;;;;;;;;;;;;1014150;29;1915;-25
2021/10/14 01:08:33;;;;;;;;;;;;;;;;;;1022367;29;1202;-25
2021/10/14 01:09:03;;;;;;;;;;;;;;;;;;1022289;29;1015;-25
2021/10/14 01:09:33;;;;;;;;;;;;;;;;;;1022547;29;955;-25
2021/10/14 01:10:04;;;;;;;;;;;;;;;;;;1022580;29;921;-25
2021/10/14 01:10:34;;;;;;;;;;;;;;;;;;1018907;29;1282;-24
2021/10/14 01:11:05;;;;;;;;;;;;;;;;;;1019119;29;979;-24
2021/10/14 01:11:35;;;;;;;;;;;;;;;;;;1018909;29;1482;-25
2021/10/14 01:12:06;;;;;;;;;;;;;;;;;;1018985;29;1053;-25
2021/10/14 01:12:37;;;;;;;;;;;;;;;;;;1019133;29;1076;-25
2021/10/14 01:13:08;;;;;;;;;;;;;;;;;;1021999;29;1253;-25
2021/10/14 01:13:38;;;;;;;;;;;;;;;;;;1022544;29;1235;-25
2021/10/14 01:14:08;;;;;;;;;;;;;;;;;;1022308;29;1420;-25
2021/10/14 01:14:39;;;;;;;;;;;;;;;;;;1022256;29;1232;-25
2021/10/14 01:15:20;;;;;;;;;;;;;;;;;;1019048;29;1095;-24
2021/10/14 01:15:50;;;;;;;;;;;;;;;;;;1019118;29;941;-25
2021/10/14 01:16:21;;;;;;;;;;;;;;;;;;1026621;28;1060;-24
2021/10/14 01:16:52;;;;;;;;;;;;;;;;;;1013969;29;1354;-25
2021/10/14 01:17:23;;;;;;;;;;;;;;;;;;1018079;29;1528;-25
2021/10/14 01:17:55;;;;;;;;;;;;;;;;;;1010088;29;1215;-25
2021/10/14 01:18:25;;;;;;;;;;;;;;;;;;1006019;29;1601;-24
2021/10/14 01:18:56;;;;;;;;;;;;;;;;;;1010146;29;1049;-25
2021/10/14 01:19:27;;;;;;;;;;;;;;;;;;1006723;29;1499;-25
2021/10/14 01:19:58;;;;;;;;;;;;;;;;;;1010354;29;1257;-24
2021/10/14 01:20:29;;;;;;;;;;;;;;;;;;1005799;29;2625;-25
2021/10/14 01:20:59;;;;;;;;;;;;;;;;;;990646;29;1622;-25
2021/10/14 01:21:30;;;;;;;;;;;;;;;;;;1000260;29;1200;-25
2021/10/14 01:22:02;;;;;;;;;;;;;;;;;;999442;29;982;-25
2021/10/14 01:22:32;;;;;;;;;;;;;;;;;;995098;29;1176;-25
2021/10/14 01:23:03;;;;;;;;;;;;;;;;;;995515;29;1242;-25
2021/10/14 01:23:34;;;;;;;;;;;;;;;;;;1002841;29;1504;-25
2021/10/14 01:24:05;;;;;;;;;;;;;;;;;;1006618;29;1156;-25
2021/10/14 01:24:35;;;;;;;;;;;;;;;;;;1006775;29;1076;-25
2021/10/14 01:25:06;;;;;;;;;;;;;;;;;;1005965;29;1377;-25
2021/10/14 01:25:36;;;;;;;;;;;;;;;;;;1006891;29;1165;-25
2021/10/14 01:26:07;;;;;;;;;;;;;;;;;;1010416;29;1360;-25
2021/10/14 01:26:38;;;;;;;;;;;;;;;;;;1015115;29;995;-26
2021/10/14 01:27:09;;;;;;;;;;;;;;;;;;1018712;29;1040;-25
2021/10/14 01:27:39;;;;;;;;;;;;;;;;;;1017965;29;1338;-24
2021/10/14 01:28:10;;;;;;;;;;;;;;;;;;1018176;29;1985;-25
2021/10/14 01:28:40;;;;;;;;;;;;;;;;;;1018651;29;971;-25
2021/10/14 01:29:11;;;;;;;;;;;;;;;;;;1013823;29;1351;-25
2021/10/14 01:29:41;;;;;;;;;;;;;;;;;;1018386;29;1048;-25
2021/10/14 01:30:12;;;;;;;;;;;;;;;;;;1018312;29;1167;-25
2021/10/14 01:30:43;;;;;;;;;;;;;;;;;;1002541;29;1063;-25
2021/10/14 01:31:14;;;;;;;;;;;;;;;;;;1002707;29;1030;-25
2021/10/14 01:31:44;;;;;;;;;;;;;;;;;;1005640;29;1633;-25
2021/10/14 01:32:15;;;;;;;;;;;;;;;;;;998712;29;1112;-25
2021/10/14 01:32:49;;;;;;;;;;;;;;;;;;1006779;29;1302;-25
2021/10/14 01:33:19;;;;;;;;;;;;;;;;;;1006917;29;1214;-24
2021/10/14 01:33:50;;;;;;;;;;;;;;;;;;1011215;29;1127;-25
2021/10/14 01:34:20;;;;;;;;;;;;;;;;;;1018155;29;993;-25
2021/10/14 01:34:51;;;;;;;;;;;;;;;;;;1018269;29;1070;-25
2021/10/14 01:35:21;;;;;;;;;;;;;;;;;;1018555;29;827;-25
2021/10/14 01:35:52;;;;;;;;;;;;;;;;;;1017748;29;1372;-24
2021/10/14 01:36:23;;;;;;;;;;;;;;;;;;1018291;29;1109;-25
2021/10/14 01:36:53;;;;;;;;;;;;;;;;;;1017674;29;1387;-25
2021/10/14 01:37:23;;;;;;;;;;;;;;;;;;1018151;29;1249;-25
2021/10/14 01:37:54;;;;;;;;;;;;;;;;;;1018169;29;961;-25
2021/10/14 01:38:24;;;;;;;;;;;;;;;;;;1017580;29;3664;-24
2021/10/14 01:38:56;;;;;;;;;;;;;;;;;;1018009;29;1174;-25
2021/10/14 01:39:26;;;;;;;;;;;;;;;;;;1014105;29;1458;-25
2021/10/14 01:39:57;;;;;;;;;;;;;;;;;;1014053;29;1201;-25
2021/10/14 01:40:27;;;;;;;;;;;;;;;;;;1014330;29;1167;-25
2021/10/14 01:40:58;;;;;;;;;;;;;;;;;;1013405;29;1513;-25
2021/10/14 01:41:28;;;;;;;;;;;;;;;;;;1006413;29;1116;-25
2021/10/14 01:41:59;;;;;;;;;;;;;;;;;;1014649;29;965;-25
2021/10/14 01:42:30;;;;;;;;;;;;;;;;;;1014206;29;1020;-25
2021/10/14 01:43:00;;;;;;;;;;;;;;;;;;1014481;29;934;-25
2021/10/14 01:43:30;;;;;;;;;;;;;;;;;;1013756;29;1401;-25
2021/10/14 01:44:01;;;;;;;;;;;;;;;;;;1014055;29;1282;-24
2021/10/14 01:44:31;;;;;;;;;;;;;;;;;;1018925;29;903;-25
2021/10/14 01:45:04;;;;;;;;;;;;;;;;;;1013081;29;1651;-25
2021/10/14 01:45:34;;;;;;;;;;;;;;;;;;1010257;29;994;-25
2021/10/14 01:46:05;;;;;;;;;;;;;;;;;;1013947;29;1081;-24
2021/10/14 01:46:36;;;;;;;;;;;;;;;;;;1013433;29;1123;-25
2021/10/14 01:47:07;;;;;;;;;;;;;;;;;;1002946;29;1095;-25
2021/10/14 01:47:37;;;;;;;;;;;;;;;;;;1002456;29;1443;-24
2021/10/14 01:48:08;;;;;;;;;;;;;;;;;;1002557;29;1986;-25
2021/10/14 01:48:38;;;;;;;;;;;;;;;;;;1010529;29;982;-24
2021/10/14 01:49:09;;;;;;;;;;;;;;;;;;1009782;29;1578;-25
2021/10/14 01:49:39;;;;;;;;;;;;;;;;;;1006484;29;1208;-25
2021/10/14 01:50:10;;;;;;;;;;;;;;;;;;1006295;29;1188;-25
2021/10/14 01:50:42;;;;;;;;;;;;;;;;;;1006423;29;1359;-25
2021/10/14 01:51:13;;;;;;;;;;;;;;;;;;1002206;29;1159;-25
2021/10/14 01:51:43;;;;;;;;;;;;;;;;;;1009772;29;1352;-24
2021/10/14 01:52:14;;;;;;;;;;;;;;;;;;1013930;29;1171;-25
2021/10/14 01:52:45;;;;;;;;;;;;;;;;;;1009820;29;1446;-25
2021/10/14 01:53:15;;;;;;;;;;;;;;;;;;1010186;29;1124;-25
2021/10/14 01:53:45;;;;;;;;;;;;;;;;;;1010595;29;1118;-25
2021/10/14 01:54:17;;;;;;;;;;;;;;;;;;1013702;29;1372;-25
2021/10/14 01:54:47;;;;;;;;;;;;;;;;;;1018135;29;1048;-25
2021/10/14 01:55:18;;;;;;;;;;;;;;;;;;1010196;29;1999;-26
2021/10/14 01:55:48;;;;;;;;;;;;;;;;;;1006466;29;1172;-25
2021/10/14 01:56:19;;;;;;;;;;;;;;;;;;1006377;29;1221;-25
2021/10/14 01:56:49;;;;;;;;;;;;;;;;;;1006660;29;1007;-25
2021/10/14 01:57:19;;;;;;;;;;;;;;;;;;1014273;29;1109;-25
2021/10/14 01:57:50;;;;;;;;;;;;;;;;;;1014349;29;1137;-25
2021/10/14 01:58:21;;;;;;;;;;;;;;;;;;1009894;29;1420;-25
2021/10/14 01:58:51;;;;;;;;;;;;;;;;;;1010337;29;1130;-25
2021/10/14 01:59:21;;;;;;;;;;;;;;;;;;1009878;29;1310;-25
2021/10/14 01:59:52;;;;;;;;;;;;;;;;;;1013582;29;1398;-25
2021/10/14 02:00:23;;;;;;;;;;;;;;;;;;1014077;29;1844;-25
2021/10/14 02:00:53;;;;;;;;;;;;;;;;;;1013775;29;1484;-25
2021/10/14 02:01:24;;;;;;;;;;;;;;;;;;1014444;29;1192;-24
2021/10/14 02:01:54;;;;;;;;;;;;;;;;;;1014255;29;1017;-25
2021/10/14 02:02:24;;;;;;;;;;;;;;;;;;1013999;29;1337;-25
2021/10/14 02:02:55;;;;;;;;;;;;;;;;;;1014288;29;1220;-24
2021/10/14 02:03:25;;;;;;;;;;;;;;;;;;1014155;29;1343;-24
2021/10/14 02:03:56;;;;;;;;;;;;;;;;;;1018187;29;1264;-25
2021/10/14 02:04:26;;;;;;;;;;;;;;;;;;1018425;29;1099;-25
2021/10/14 02:04:57;;;;;;;;;;;;;;;;;;1013577;29;1429;-25
2021/10/14 02:05:28;;;;;;;;;;;;;;;;;;1009843;29;1210;-25
2021/10/14 02:05:59;;;;;;;;;;;;;;;;;;1006315;29;1472;-25
2021/10/14 02:06:29;;;;;;;;;;;;;;;;;;1002364;29;1038;-25
2021/10/14 02:06:59;;;;;;;;;;;;;;;;;;998871;29;1076;-24
2021/10/14 02:07:30;;;;;;;;;;;;;;;;;;1014196;29;1042;-25
2021/10/14 02:08:01;;;;;;;;;;;;;;;;;;1014023;29;1977;-25
2021/10/14 02:08:32;;;;;;;;;;;;;;;;;;1014208;29;1096;-24
2021/10/14 02:09:03;;;;;;;;;;;;;;;;;;1002254;29;1082;-24
2021/10/14 02:09:34;;;;;;;;;;;;;;;;;;998807;29;1552;-25
2021/10/14 02:10:04;;;;;;;;;;;;;;;;;;1002314;29;1558;-25
2021/10/14 02:10:35;;;;;;;;;;;;;;;;;;1006646;29;1038;-25
2021/10/14 02:11:05;;;;;;;;;;;;;;;;;;1013691;29;1400;-25
2021/10/14 02:11:36;;;;;;;;;;;;;;;;;;1013480;29;1573;-25
2021/10/14 02:12:06;;;;;;;;;;;;;;;;;;1014317;29;1251;-25
2021/10/14 02:12:37;;;;;;;;;;;;;;;;;;1018142;29;946;-24
2021/10/14 02:13:07;;;;;;;;;;;;;;;;;;1018225;29;1474;-25
2021/10/14 02:13:39;;;;;;;;;;;;;;;;;;1022339;29;1221;-25
2021/10/14 02:14:09;;;;;;;;;;;;;;;;;;1017654;29;1323;-25
2021/10/14 02:14:40;;;;;;;;;;;;;;;;;;1018410;29;1115;-25
2021/10/14 02:15:10;;;;;;;;;;;;;;;;;;1013910;29;1617;-24
2021/10/14 02:15:41;;;;;;;;;;;;;;;;;;1014089;29;1329;-25
2021/10/14 02:16:12;;;;;;;;;;;;;;;;;;1010172;29;1148;-25
2021/10/14 02:16:42;;;;;;;;;;;;;;;;;;1009709;29;2670;-25
2021/10/14 02:17:13;;;;;;;;;;;;;;;;;;1006191;29;1083;-25
2021/10/14 02:17:43;;;;;;;;;;;;;;;;;;1010503;29;969;-25
2021/10/14 02:18:14;;;;;;;;;;;;;;;;;;1013376;29;1431;-25
2021/10/14 02:18:44;;;;;;;;;;;;;;;;;;1006570;29;1322;-25
2021/10/14 02:19:14;;;;;;;;;;;;;;;;;;1013742;29;1564;-25
2021/10/14 02:19:45;;;;;;;;;;;;;;;;;;1014030;29;1213;-25
2021/10/14 02:20:16;;;;;;;;;;;;;;;;;;1014015;29;1069;-25
2021/10/14 02:20:46;;;;;;;;;;;;;;;;;;1014022;29;1299;-25
2021/10/14 02:21:17;;;;;;;;;;;;;;;;;;1014105;29;1132;-25
2021/10/14 02:21:48;;;;;;;;;;;;;;;;;;1006501;29;1180;-25
2021/10/14 02:22:18;;;;;;;;;;;;;;;;;;1009983;29;1363;-25
2021/10/14 02:22:49;;;;;;;;;;;;;;;;;;1010565;29;1072;-24
2021/10/14 02:23:19;;;;;;;;;;;;;;;;;;1013438;29;1525;-25
2021/10/14 02:23:49;;;;;;;;;;;;;;;;;;1010089;29;1147;-25
2021/10/14 02:24:20;;;;;;;;;;;;;;;;;;1010372;29;949;-25
2021/10/14 02:24:51;;;;;;;;;;;;;;;;;;1009860;29;1324;-25
2021/10/14 02:25:21;;;;;;;;;;;;;;;;;;1002763;29;1264;-24
2021/10/14 02:25:52;;;;;;;;;;;;;;;;;;998218;29;1548;-25
2021/10/14 02:26:22;;;;;;;;;;;;;;;;;;998537;29;1203;-25
2021/10/14 02:26:53;;;;;;;;;;;;;;;;;;998554;29;1086;-25
2021/10/14 02:27:24;;;;;;;;;;;;;;;;;;1013635;29;1387;-24
2021/10/14 02:27:54;;;;;;;;;;;;;;;;;;1013701;29;1982;-25
2021/10/14 02:28:25;;;;;;;;;;;;;;;;;;1010389;29;1236;-24
2021/10/14 02:28:55;;;;;;;;;;;;;;;;;;1013767;29;1492;-25
2021/10/14 02:29:25;;;;;;;;;;;;;;;;;;1006668;29;1002;-24
2021/10/14 02:29:56;;;;;;;;;;;;;;;;;;1017828;29;1328;-25
2021/10/14 02:30:26;;;;;;;;;;;;;;;;;;1013940;29;1220;-24
2021/10/14 02:30:57;;;;;;;;;;;;;;;;;;1010214;29;1050;-25
2021/10/14 02:31:28;;;;;;;;;;;;;;;;;;1010464;29;973;-25
2021/10/14 02:31:58;;;;;;;;;;;;;;;;;;1010228;29;1083;-25
2021/10/14 02:32:29;;;;;;;;;;;;;;;;;;1013666;29;1401;-25
2021/10/14 02:32:59;;;;;;;;;;;;;;;;;;1017953;29;982;-24
2021/10/14 02:33:30;;;;;;;;;;;;;;;;;;1014167;29;1420;-25
2021/10/14 02:34:00;;;;;;;;;;;;;;;;;;1013899;29;1472;-25
2021/10/14 02:34:30;;;;;;;;;;;;;;;;;;1014190;29;1085;-25
2021/10/14 02:35:01;;;;;;;;;;;;;;;;;;1014267;29;1574;-25
2021/10/14 02:35:32;;;;;;;;;;;;;;;;;;1014002;29;1066;-25
2021/10/14 02:36:03;;;;;;;;;;;;;;;;;;1014188;29;1001;-25
2021/10/14 02:36:34;;;;;;;;;;;;;;;;;;1014126;29;1149;-24
2021/10/14 02:37:04;;;;;;;;;;;;;;;;;;1014198;29;1008;-25
2021/10/14 02:37:36;;;;;;;;;;;;;;;;;;1013783;29;1099;-25
2021/10/14 02:38:06;;;;;;;;;;;;;;;;;;1009388;29;1216;-25
2021/10/14 02:38:37;;;;;;;;;;;;;;;;;;1010000;29;3558;-25
2021/10/14 02:39:07;;;;;;;;;;;;;;;;;;1010152;29;1725;-24
2021/10/14 02:39:37;;;;;;;;;;;;;;;;;;1014096;29;1230;-25
2021/10/14 02:40:09;;;;;;;;;;;;;;;;;;1014171;29;1043;-24
2021/10/14 02:40:39;;;;;;;;;;;;;;;;;;1013977;29;1329;-24
2021/10/14 02:41:10;;;;;;;;;;;;;;;;;;1021858;29;1028;-24
2021/10/14 02:41:41;;;;;;;;;;;;;;;;;;1022109;29;1007;-25
2021/10/14 02:42:11;;;;;;;;;;;;;;;;;;1017372;29;1335;-25
2021/10/14 02:42:42;;;;;;;;;;;;;;;;;;1021787;29;1070;-25
2021/10/14 02:43:13;;;;;;;;;;;;;;;;;;1006032;29;1177;-25
2021/10/14 02:43:43;;;;;;;;;;;;;;;;;;1010274;29;1166;-25
2021/10/14 02:44:14;;;;;;;;;;;;;;;;;;1009949;29;1097;-25
2021/10/14 02:44:45;;;;;;;;;;;;;;;;;;1005613;29;1755;-24
2021/10/14 02:45:15;;;;;;;;;;;;;;;;;;1006357;29;1117;-25
2021/10/14 02:45:46;;;;;;;;;;;;;;;;;;1006033;29;1313;-24
2021/10/14 02:46:16;;;;;;;;;;;;;;;;;;1006189;29;1198;-24
2021/10/14 02:46:47;;;;;;;;;;;;;;;;;;1014250;29;1102;-24
2021/10/14 02:47:18;;;;;;;;;;;;;;;;;;1013571;29;1199;-24
2021/10/14 02:47:48;;;;;;;;;;;;;;;;;;1014038;29;1923;-24
2021/10/14 02:48:18;;;;;;;;;;;;;;;;;;1014183;29;867;-25
2021/10/14 02:48:48;;;;;;;;;;;;;;;;;;1013157;29;1472;-24
2021/10/14 02:49:19;;;;;;;;;;;;;;;;;;1014720;29;1126;-25
2021/10/14 02:49:50;;;;;;;;;;;;;;;;;;1013947;29;1113;-25
2021/10/14 02:50:20;;;;;;;;;;;;;;;;;;1014333;29;988;-25
2021/10/14 02:50:50;;;;;;;;;;;;;;;;;;1014103;29;978;-24
2021/10/14 02:51:21;;;;;;;;;;;;;;;;;;1013941;29;1318;-25
2021/10/14 02:51:52;;;;;;;;;;;;;;;;;;1013986;29;1106;-25
2021/10/14 02:52:22;;;;;;;;;;;;;;;;;;1014165;29;1354;-25
2021/10/14 02:52:52;;;;;;;;;;;;;;;;;;1014015;29;1045;-25
2021/10/14 02:53:23;;;;;;;;;;;;;;;;;;1010301;29;1177;-25
2021/10/14 02:53:54;;;;;;;;;;;;;;;;;;1009596;29;1382;-25
2021/10/14 02:54:24;;;;;;;;;;;;;;;;;;1012471;29;1149;-25
2021/10/14 02:54:55;;;;;;;;;;;;;;;;;;1010028;29;1125;-24
2021/10/14 02:55:25;;;;;;;;;;;;;;;;;;1010189;29;1089;-25
2021/10/14 02:55:56;;;;;;;;;;;;;;;;;;1010236;29;1056;-24
2021/10/14 02:56:26;;;;;;;;;;;;;;;;;;1014021;29;1161;-25
2021/10/14 02:56:57;;;;;;;;;;;;;;;;;;1017699;29;1053;-24
2021/10/14 02:57:28;;;;;;;;;;;;;;;;;;1022066;29;1136;-24
2021/10/14 02:57:59;;;;;;;;;;;;;;;;;;1020845;29;1557;-24
2021/10/14 02:58:29;;;;;;;;;;;;;;;;;;1013964;29;1056;-24
2021/10/14 02:59:00;;;;;;;;;;;;;;;;;;1009389;29;1244;-24
2021/10/14 02:59:31;;;;;;;;;;;;;;;;;;1005292;29;1383;-25
2021/10/14 03:00:03;;;;;;;;;;;;;;;;;;1006104;29;1246;-24
2021/10/14 03:00:34;;;;;;;;;;;;;;;;;;1005717;29;1234;-24
2021/10/14 03:01:05;;;;;;;;;;;;;;;;;;998948;29;1476;-24
2021/10/14 03:01:35;;;;;;;;;;;;;;;;;;1005267;29;1222;-24
2021/10/14 03:02:07;;;;;;;;;;;;;;;;;;994808;29;1120;-24
2021/10/14 03:02:38;;;;;;;;;;;;;;;;;;994967;29;1009;-24
2021/10/14 03:03:08;;;;;;;;;;;;;;;;;;994196;29;1388;-24
2021/10/14 03:03:38;;;;;;;;;;;;;;;;;;998827;29;1273;-24
2021/10/14 03:04:09;;;;;;;;;;;;;;;;;;1002579;29;1519;-24
2021/10/14 03:04:39;;;;;;;;;;;;;;;;;;1013938;29;1522;-24
2021/10/14 03:05:09;;;;;;;;;;;;;;;;;;1018344;29;1002;-24
2021/10/14 03:05:40;;;;;;;;;;;;;;;;;;1018911;29;946;-25
2021/10/14 03:06:10;;;;;;;;;;;;;;;;;;1018447;29;1055;-25
2021/10/14 03:06:41;;;;;;;;;;;;;;;;;;1022116;29;1016;-24
2021/10/14 03:07:12;;;;;;;;;;;;;;;;;;1017010;29;1810;-25
2021/10/14 03:07:43;;;;;;;;;;;;;;;;;;1021838;29;1613;-24
2021/10/14 03:08:13;;;;;;;;;;;;;;;;;;1021255;29;1910;-25
2021/10/14 03:08:44;;;;;;;;;;;;;;;;;;1014048;29;970;-24
2021/10/14 03:09:15;;;;;;;;;;;;;;;;;;1017959;29;1046;-25
2021/10/14 03:09:46;;;;;;;;;;;;;;;;;;1013833;29;1500;-24
2021/10/14 03:10:16;;;;;;;;;;;;;;;;;;1013401;29;1428;-24
2021/10/14 03:10:46;;;;;;;;;;;;;;;;;;1014269;29;1073;-24
2021/10/14 03:11:16;;;;;;;;;;;;;;;;;;1017620;29;1428;-24
2021/10/14 03:11:47;;;;;;;;;;;;;;;;;;1018857;29;1015;-25
2021/10/14 03:12:18;;;;;;;;;;;;;;;;;;1017590;29;1624;-25
2021/10/14 03:12:49;;;;;;;;;;;;;;;;;;1007616;29;2488;-25
2021/10/14 03:13:19;;;;;;;;;;;;;;;;;;1006341;29;1132;-24
2021/10/14 03:13:50;;;;;;;;;;;;;;;;;;1005776;29;1168;-24
2021/10/14 03:14:21;;;;;;;;;;;;;;;;;;1006342;29;1078;-25
2021/10/14 03:14:51;;;;;;;;;;;;;;;;;;1013777;29;1248;-25
2021/10/14 03:15:22;;;;;;;;;;;;;;;;;;1010144;29;1231;-24
2021/10/14 03:15:53;;;;;;;;;;;;;;;;;;1010026;29;1709;-25
2021/10/14 03:16:23;;;;;;;;;;;;;;;;;;1013634;29;1517;-25
2021/10/14 03:16:54;;;;;;;;;;;;;;;;;;1009993;29;1351;-24
2021/10/14 03:17:25;;;;;;;;;;;;;;;;;;1014121;29;895;-24
2021/10/14 03:17:56;;;;;;;;;;;;;;;;;;1009808;29;1897;-24
2021/10/14 03:18:26;;;;;;;;;;;;;;;;;;1017756;29;1198;-25
2021/10/14 03:18:57;;;;;;;;;;;;;;;;;;1021115;29;1400;-24
2021/10/14 03:19:28;;;;;;;;;;;;;;;;;;1017514;29;1129;-25
2021/10/14 03:19:59;;;;;;;;;;;;;;;;;;1009908;29;1113;-25
2021/10/14 03:20:29;;;;;;;;;;;;;;;;;;1009394;29;1461;-25
2021/10/14 03:21:00;;;;;;;;;;;;;;;;;;1013685;29;1077;-24
2021/10/14 03:21:31;;;;;;;;;;;;;;;;;;1001804;29;1329;-25
2021/10/14 03:22:01;;;;;;;;;;;;;;;;;;1002454;29;1066;-25
2021/10/14 03:22:32;;;;;;;;;;;;;;;;;;998543;29;1243;-25
2021/10/14 03:23:03;;;;;;;;;;;;;;;;;;1002076;29;1591;-25
2021/10/14 03:23:33;;;;;;;;;;;;;;;;;;1013940;29;1045;-25
2021/10/14 03:24:04;;;;;;;;;;;;;;;;;;1014064;29;965;-24
2021/10/14 03:24:34;;;;;;;;;;;;;;;;;;1013795;29;1964;-25
2021/10/14 03:25:05;;;;;;;;;;;;;;;;;;1017993;29;969;-24
2021/10/14 03:25:35;;;;;;;;;;;;;;;;;;1014010;29;1046;-24
2021/10/14 03:26:06;;;;;;;;;;;;;;;;;;1014119;29;962;-25
2021/10/14 03:26:36;;;;;;;;;;;;;;;;;;1013902;29;1543;-26
2021/10/14 03:27:07;;;;;;;;;;;;;;;;;;1017174;29;1496;-25
2021/10/14 03:27:37;;;;;;;;;;;;;;;;;;1014037;29;1301;-25
2021/10/14 03:28:07;;;;;;;;;;;;;;;;;;1013589;29;2003;-24
2021/10/14 03:28:38;;;;;;;;;;;;;;;;;;1014120;29;975;-25
2021/10/14 03:29:08;;;;;;;;;;;;;;;;;;1017816;29;1069;-25
2021/10/14 03:29:39;;;;;;;;;;;;;;;;;;1017697;29;1476;-24
2021/10/14 03:30:09;;;;;;;;;;;;;;;;;;1017794;29;1679;-24
2021/10/14 03:30:40;;;;;;;;;;;;;;;;;;1017903;29;1034;-25
2021/10/14 03:31:11;;;;;;;;;;;;;;;;;;1013337;29;1351;-24
2021/10/14 03:31:41;;;;;;;;;;;;;;;;;;1014235;29;1095;-24
2021/10/14 03:32:12;;;;;;;;;;;;;;;;;;1017300;29;1596;-25
2021/10/14 03:32:43;;;;;;;;;;;;;;;;;;1018009;29;1074;-25
2021/10/14 03:33:13;;;;;;;;;;;;;;;;;;1013860;29;1046;-25
2021/10/14 03:33:44;;;;;;;;;;;;;;;;;;1009714;29;1149;-25